Time;durP1;ratioP1;P1;durP2;ratioP2;P2;SDS_P1;SDS_P2;PMS_P1;PMS_P2;Temp;Humidity;BMP_temperature;BMP_pressure;BME280_temperature;BME280_humidity;BME280_pressure;Samples;Min_cycle;Max_cycle;Signal;HPM_P1;HPM_P2
2021/04/30 00:00:32;;;;;;;4.97;3.20;;;;;;;7.61;100.00;101454.30;1878987;76;26629;-80
2021/04/30 00:03:02;;;;;;;5.57;3.07;;;;;;;7.59;100.00;101454.55;1879309;75;26239;-81
2021/04/30 00:05:34;;;;;;;5.20;2.77;;;;;;;7.60;100.00;101449.32;1879363;76;26320;-80
2021/04/30 00:08:04;;;;;;;5.33;3.10;;;;;;;7.55;100.00;101455.30;1879336;76;26287;-80
2021/04/30 00:10:34;;;;;;;6.37;3.23;;;;;;;7.52;100.00;101450.28;1879265;74;26747;-80
2021/04/30 00:13:04;;;;;;;5.53;3.20;;;;;;;7.55;100.00;101451.15;1879165;76;26680;-80
2021/04/30 00:15:35;;;;;;;4.67;3.30;;;;;;;7.53;100.00;101454.73;1879264;76;26226;-80
2021/04/30 00:18:05;;;;;;;3.63;2.93;;;;;;;7.60;100.00;101448.48;1879299;76;26226;-80
2021/04/30 00:20:40;;;;;;;4.87;3.10;;;;;;;7.66;100.00;101455.20;1879105;76;26279;-80
2021/04/30 00:23:12;;;;;;;4.43;3.60;;;;;;;7.60;100.00;101456.23;1879169;76;26227;-79
2021/04/30 00:25:44;;;;;;;4.83;2.90;;;;;;;7.60;100.00;101459.00;1879129;76;26768;-79
2021/04/30 00:28:14;;;;;;;5.03;3.80;;;;;;;7.58;100.00;101457.55;1879207;76;26653;-80
2021/04/30 00:30:44;;;;;;;3.50;3.13;;;;;;;7.38;100.00;101455.83;1879190;76;26308;-79
2021/04/30 00:33:16;;;;;;;4.30;3.33;;;;;;;7.49;100.00;101450.75;1879167;76;26226;-79
2021/04/30 00:35:46;;;;;;;3.63;3.33;;;;;;;7.55;100.00;101453.38;1879226;76;26742;-80
2021/04/30 00:38:17;;;;;;;3.57;3.23;;;;;;;7.54;100.00;101445.32;1879082;76;26329;-79
2021/04/30 00:40:48;;;;;;;4.63;3.40;;;;;;;7.42;100.00;101447.33;1879176;76;26202;-78
2021/04/30 00:43:18;;;;;;;5.50;3.83;;;;;;;7.49;100.00;101452.14;1879271;76;26258;-79
2021/04/30 00:45:52;;;;;;;4.77;3.70;;;;;;;7.43;100.00;101447.09;1879185;76;26261;-77
2021/04/30 00:48:21;;;;;;;5.93;3.67;;;;;;;7.28;100.00;101451.78;1879121;76;26288;-77
2021/04/30 00:50:52;;;;;;;5.80;3.60;;;;;;;7.45;100.00;101451.80;1879007;76;26193;-78
2021/04/30 00:53:23;;;;;;;4.27;3.50;;;;;;;7.39;100.00;101446.45;1879151;76;26226;-78
2021/04/30 00:55:53;;;;;;;6.40;4.23;;;;;;;7.41;100.00;101443.72;1879271;76;26222;-79
2021/04/30 00:58:24;;;;;;;8.67;4.23;;;;;;;7.32;100.00;101443.30;1879168;76;26308;-78
2021/04/30 01:00:54;;;;;;;5.83;3.80;;;;;;;7.30;100.00;101446.86;1885567;76;26632;-78
2021/04/30 01:03:25;;;;;;;5.47;3.73;;;;;;;7.37;100.00;101438.94;1880348;75;26759;-78
2021/04/30 01:05:55;;;;;;;5.67;3.93;;;;;;;7.29;100.00;101452.09;1878988;76;26218;-77
2021/04/30 01:08:25;;;;;;;5.33;4.10;;;;;;;7.39;100.00;101446.45;1878967;76;26287;-77
2021/04/30 01:10:55;;;;;;;6.07;4.00;;;;;;;7.48;100.00;101443.58;1878989;75;26313;-78
2021/04/30 01:13:26;;;;;;;6.93;4.17;;;;;;;7.50;100.00;101446.38;1879050;76;26662;-78
2021/04/30 01:15:56;;;;;;;6.93;4.10;;;;;;;7.53;100.00;101447.24;1879044;76;26285;-78
2021/04/30 01:18:26;;;;;;;7.70;4.10;;;;;;;7.35;100.00;101446.66;1879035;76;26640;-78
2021/04/30 01:20:56;;;;;;;6.30;4.13;;;;;;;7.37;100.00;101448.08;1879062;76;26637;-78
2021/04/30 01:23:25;;;;;;;7.30;4.60;;;;;;;7.38;100.00;101455.83;1879073;76;26721;-78
2021/04/30 01:25:56;;;;;;;8.90;4.10;;;;;;;7.36;100.00;101446.96;1879174;76;26259;-78
2021/04/30 01:28:26;;;;;;;8.17;3.90;;;;;;;7.26;100.00;101455.90;1879075;76;26307;-78
2021/04/30 01:30:56;;;;;;;5.17;4.30;;;;;;;7.17;100.00;101457.39;1879017;76;26179;-78
2021/04/30 01:33:26;;;;;;;5.73;4.30;;;;;;;7.10;100.00;101456.14;1879001;76;26665;-78
2021/04/30 01:35:56;;;;;;;5.03;4.40;;;;;;;6.86;100.00;101460.09;1879105;76;26689;-78
2021/04/30 01:38:26;;;;;;;6.40;3.93;;;;;;;6.80;100.00;101458.34;1849011;77;26629;-78
2021/04/30 01:40:56;;;;;;;6.67;3.90;;;;;;;6.77;100.00;101458.80;1874291;76;26209;-79
2021/04/30 01:43:27;;;;;;;5.57;4.70;;;;;;;6.84;100.00;101459.52;1879004;76;26802;-78
2021/04/30 01:46:04;;;;;;;6.27;4.37;;;;;;;6.86;100.00;101460.94;1879098;76;26202;-78
2021/04/30 01:48:32;;;;;;;8.10;4.43;;;;;;;6.78;100.00;101460.48;1878268;76;26218;-78
2021/04/30 01:51:05;;;;;;;6.57;4.63;;;;;;;6.75;100.00;101460.98;1879020;76;26779;-78
2021/04/30 01:53:37;;;;;;;6.33;3.93;;;;;;;6.88;100.00;101462.62;1881684;76;26333;-77
2021/04/30 01:56:09;;;;;;;7.30;4.07;;;;;;;6.94;100.00;101458.32;1879097;76;26187;-78
2021/04/30 01:58:41;;;;;;;9.97;4.60;;;;;;;6.76;100.00;101459.91;1878979;76;26660;-78
2021/04/30 02:01:12;;;;;;;5.30;4.07;;;;;;;6.65;100.00;101464.91;1879063;76;26823;-79
2021/04/30 02:03:42;;;;;;;7.83;4.53;;;;;;;6.65;100.00;101460.77;1879128;75;26363;-80
2021/04/30 02:06:12;;;;;;;7.63;4.80;;;;;;;6.59;100.00;101461.77;1879104;76;26217;-80
2021/04/30 02:08:42;;;;;;;10.00;5.33;;;;;;;6.57;100.00;101467.52;1878978;76;26739;-80
2021/04/30 02:11:12;;;;;;;6.43;4.43;;;;;;;6.52;100.00;101466.56;1879151;74;26784;-80
2021/04/30 02:13:42;;;;;;;8.33;5.10;;;;;;;6.42;100.00;101471.31;1879028;76;26228;-78
2021/04/30 02:16:12;;;;;;;6.83;5.00;;;;;;;6.36;100.00;101465.40;1879255;76;26222;-79
2021/04/30 02:18:42;;;;;;;7.63;5.37;;;;;;;6.45;100.00;101470.84;1879079;76;26748;-79
2021/04/30 02:21:12;;;;;;;5.43;4.73;;;;;;;6.43;100.00;101470.23;1879011;76;26213;-79
2021/04/30 02:23:42;;;;;;;10.73;5.17;;;;;;;6.46;100.00;101473.06;1879181;76;26727;-80
2021/04/30 02:26:13;;;;;;;6.47;4.43;;;;;;;6.42;100.00;101468.55;1879151;76;26262;-79
2021/04/30 02:28:45;;;;;;;7.40;5.20;;;;;;;6.36;100.00;101467.63;1879123;76;26412;-79
2021/04/30 02:31:16;;;;;;;4.90;4.40;;;;;;;6.34;100.00;101464.79;1879139;76;26304;-80
2021/04/30 02:33:46;;;;;;;9.10;4.93;;;;;;;6.23;100.00;101473.93;1878996;76;26234;-79
2021/04/30 02:36:16;;;;;;;8.00;5.77;;;;;;;6.26;100.00;101463.78;1879093;76;26207;-79
2021/04/30 02:38:46;;;;;;;6.27;4.90;;;;;;;6.24;100.00;101475.08;1879043;76;26198;-79
2021/04/30 02:41:15;;;;;;;5.93;4.80;;;;;;;6.18;100.00;101468.30;1878967;76;26210;-79
2021/04/30 02:43:45;;;;;;;7.00;5.00;;;;;;;6.08;100.00;101470.27;1879093;76;26751;-78
2021/04/30 02:46:16;;;;;;;8.57;4.47;;;;;;;6.01;100.00;101470.94;1879195;76;26285;-78
2021/04/30 02:48:48;;;;;;;8.77;5.17;;;;;;;6.09;100.00;101470.58;1878988;76;26296;-79
2021/04/30 02:51:17;;;;;;;5.73;4.97;;;;;;;5.92;100.00;101467.70;1879239;76;26197;-79
2021/04/30 02:53:47;;;;;;;7.97;4.83;;;;;;;5.84;100.00;101468.57;1878988;76;26696;-79
2021/04/30 02:56:17;;;;;;;7.23;5.17;;;;;;;5.91;100.00;101467.94;1879041;76;26206;-80
2021/04/30 02:58:47;;;;;;;5.77;5.17;;;;;;;5.87;100.00;101476.39;1878942;76;26222;-79
2021/04/30 03:01:17;;;;;;;7.07;4.70;;;;;;;6.01;100.00;101470.10;1879008;76;26328;-79
2021/04/30 03:03:47;;;;;;;7.90;5.03;;;;;;;6.09;100.00;101471.11;1879052;75;26316;-78
2021/04/30 03:06:17;;;;;;;5.93;4.77;;;;;;;5.95;100.00;101467.22;1879112;76;26218;-78
2021/04/30 03:08:52;;;;;;;9.73;5.30;;;;;;;5.83;100.00;101475.16;1879027;76;26693;-79
2021/04/30 03:11:18;;;;;;;7.70;5.43;;;;;;;5.74;100.00;101469.16;1878393;74;26269;-79
2021/04/30 03:13:49;;;;;;;8.73;6.00;;;;;;;5.83;100.00;101468.26;1879064;76;26218;-79
2021/04/30 03:16:20;;;;;;;8.77;5.40;;;;;;;6.15;100.00;101468.78;1878997;76;26681;-79
2021/04/30 03:18:50;;;;;;;6.40;5.63;;;;;;;6.00;100.00;101469.26;1879161;76;26193;-80
2021/04/30 03:21:20;;;;;;;8.17;6.00;;;;;;;6.10;100.00;101463.98;1879051;76;26230;-80
2021/04/30 03:23:49;;;;;;;6.53;5.40;;;;;;;5.80;100.00;101464.61;1879030;76;26213;-79
2021/04/30 03:26:20;;;;;;;8.97;5.90;;;;;;;5.49;100.00;101469.90;1879035;76;26802;-79
2021/04/30 03:28:50;;;;;;;8.97;5.80;;;;;;;5.53;100.00;101473.02;1878939;76;26190;-79
2021/04/30 03:31:20;;;;;;;6.70;5.90;;;;;;;5.54;100.00;101463.68;1878930;76;26657;-79
2021/04/30 03:33:50;;;;;;;8.13;6.20;;;;;;;5.53;100.00;101462.84;1878918;76;26590;-79
2021/04/30 03:36:20;;;;;;;7.33;6.07;;;;;;;5.62;100.00;101456.44;1879088;76;26226;-79
2021/04/30 03:38:51;;;;;;;8.27;6.50;;;;;;;5.72;100.00;101460.83;1879197;76;26222;-79
2021/04/30 03:41:22;;;;;;;8.60;6.17;;;;;;;5.72;100.00;101464.97;1879156;76;26728;-78
2021/04/30 03:43:52;;;;;;;10.60;6.23;;;;;;;5.63;100.00;101463.63;1879072;76;26326;-79
2021/04/30 03:46:21;;;;;;;9.20;6.33;;;;;;;5.61;100.00;101465.23;1879149;76;26238;-79
2021/04/30 03:48:52;;;;;;;9.33;6.87;;;;;;;5.74;100.00;101460.89;1879207;76;26337;-78
2021/04/30 03:51:38;;;;;;;10.80;6.37;;;;;;;5.87;100.00;101463.98;1886611;76;32949;-78
2021/04/30 03:54:08;;;;;;;8.70;6.80;;;;;;;6.04;100.00;101460.80;1887295;76;26192;-79
2021/04/30 03:56:38;;;;;;;9.43;6.93;;;;;;;5.85;100.00;101470.25;1887310;76;26301;-79
2021/04/30 03:59:08;;;;;;;9.27;6.70;;;;;;;5.88;100.00;101463.75;1887523;76;26324;-78
2021/04/30 04:01:38;;;;;;;8.80;6.90;;;;;;;5.80;100.00;101461.86;1866294;76;930762;-78
2021/04/30 04:04:08;;;;;;;9.10;6.27;;;;;;;5.74;100.00;101460.89;1873251;76;26238;-77
2021/04/30 04:06:38;;;;;;;9.83;6.33;;;;;;;5.83;100.00;101462.75;1869380;76;26205;-78
2021/04/30 04:09:07;;;;;;;8.77;6.37;;;;;;;5.89;100.00;101459.92;1870547;76;26193;-78
2021/04/30 04:11:37;;;;;;;10.87;6.73;;;;;;;5.99;100.00;101461.24;1876397;74;26404;-78
2021/04/30 04:14:07;;;;;;;9.37;6.90;;;;;;;5.90;100.00;101469.03;1871977;76;26271;-78
2021/04/30 04:16:37;;;;;;;7.73;6.43;;;;;;;5.88;100.00;101468.42;1874514;76;26209;-78
2021/04/30 04:19:07;;;;;;;8.87;6.80;;;;;;;5.83;100.00;101471.02;1877432;76;26755;-79
2021/04/30 04:21:37;;;;;;;9.47;6.20;;;;;;;5.92;100.00;101469.62;1876176;76;26647;-78
2021/04/30 04:24:09;;;;;;;9.10;6.87;;;;;;;5.87;100.00;101470.34;1870559;76;26180;-79
2021/04/30 04:26:39;;;;;;;8.40;5.90;;;;;;;5.86;100.00;101463.13;1879150;76;26199;-78
2021/04/30 04:29:09;;;;;;;6.60;6.00;;;;;;;5.78;100.00;101475.02;1879080;76;26204;-79
2021/04/30 04:31:39;;;;;;;10.90;6.50;;;;;;;5.83;100.00;101476.53;1879202;76;26273;-78
2021/04/30 04:34:09;;;;;;;7.00;6.30;;;;;;;5.77;100.00;101475.59;1879058;76;26178;-78
2021/04/30 04:36:39;;;;;;;7.77;6.20;;;;;;;5.68;100.00;101478.92;1879091;76;26645;-79
2021/04/30 04:39:09;;;;;;;8.63;6.47;;;;;;;5.75;100.00;101479.64;1879130;76;26763;-77
2021/04/30 04:41:39;;;;;;;12.63;6.83;;;;;;;5.91;100.00;101485.86;1863235;76;26175;-77
2021/04/30 04:44:09;;;;;;;9.30;7.07;;;;;;;5.75;100.00;101492.05;1879110;76;26594;-78
2021/04/30 04:46:39;;;;;;;8.37;6.53;;;;;;;5.77;100.00;101485.23;1879000;76;26186;-78
2021/04/30 04:49:09;;;;;;;10.30;6.83;;;;;;;5.88;100.00;101491.86;1879144;76;26204;-77
2021/04/30 04:51:38;;;;;;;7.33;6.50;;;;;;;6.15;100.00;101494.45;1879204;76;26666;-77
2021/04/30 04:54:08;;;;;;;7.33;6.47;;;;;;;6.25;100.00;101496.58;1879164;76;26205;-79
2021/04/30 04:56:38;;;;;;;10.60;7.83;;;;;;;5.94;100.00;101495.89;1879220;76;26215;-79
2021/04/30 04:59:08;;;;;;;9.83;7.80;;;;;;;5.84;100.00;101494.23;1879088;76;26223;-78
2021/04/30 05:01:39;;;;;;;9.97;7.57;;;;;;;5.94;100.00;101497.27;1879138;76;26237;-78
2021/04/30 05:04:08;;;;;;;7.73;6.70;;;;;;;5.94;100.00;101493.67;1879120;76;26363;-77
2021/04/30 05:06:38;;;;;;;9.23;7.17;;;;;;;5.96;100.00;101498.39;1878991;76;26635;-76
2021/04/30 05:09:10;;;;;;;10.27;7.87;;;;;;;5.94;100.00;101504.70;1879078;76;26210;-77
2021/04/30 05:11:40;;;;;;;10.23;7.23;;;;;;;6.04;100.00;101503.55;1878957;76;26182;-77
2021/04/30 05:14:10;;;;;;;8.43;7.37;;;;;;;6.31;100.00;101510.27;1879179;75;26285;-77
2021/04/30 05:16:40;;;;;;;10.33;8.03;;;;;;;6.18;100.00;101506.91;1879125;76;26211;-77
2021/04/30 05:19:10;;;;;;;9.33;7.97;;;;;;;6.09;100.00;101504.20;1870152;76;26672;-77
2021/04/30 05:21:40;;;;;;;9.43;7.80;;;;;;;6.08;100.00;101504.74;1879056;76;26658;-76
2021/04/30 05:24:13;;;;;;;9.93;7.77;;;;;;;6.07;100.00;101503.09;1878971;76;26272;-77
2021/04/30 05:26:44;;;;;;;9.90;7.90;;;;;;;6.14;100.00;101512.07;1878934;76;26182;-77
2021/04/30 05:29:15;;;;;;;8.20;7.33;;;;;;;6.29;100.00;101506.09;1879087;76;26183;-78
2021/04/30 05:31:45;;;;;;;12.80;8.30;;;;;;;6.27;100.00;101512.38;1879009;76;26262;-79
2021/04/30 05:34:14;;;;;;;11.50;8.57;;;;;;;6.35;100.00;101512.84;1879183;76;26668;-78
2021/04/30 05:36:44;;;;;;;9.73;8.70;;;;;;;6.40;100.00;101516.27;1879022;76;26244;-77
2021/04/30 05:39:14;;;;;;;11.20;8.73;;;;;;;6.43;100.00;101514.39;1879037;76;26258;-77
2021/04/30 05:41:44;;;;;;;12.33;8.90;;;;;;;6.44;100.00;101522.13;1879072;76;26362;-78
2021/04/30 05:44:14;;;;;;;10.73;9.00;;;;;;;6.50;100.00;101524.78;1879086;76;26190;-78
2021/04/30 05:46:44;;;;;;;10.27;8.90;;;;;;;6.49;100.00;101526.39;1879115;76;26249;-80
2021/04/30 05:49:13;;;;;;;10.20;8.37;;;;;;;6.45;100.00;101526.58;1879201;76;26218;-81
2021/04/30 05:51:43;;;;;;;12.13;8.00;;;;;;;6.64;100.00;101528.09;1879121;76;26323;-80
2021/04/30 05:54:13;;;;;;;12.53;8.10;;;;;;;6.61;100.00;101526.67;1879102;76;26285;-80
2021/04/30 05:56:43;;;;;;;11.63;8.40;;;;;;;6.75;100.00;101516.20;1879074;76;26214;-82
2021/04/30 05:59:14;;;;;;;7.60;6.73;;;;;;;6.88;100.00;101520.61;1879134;76;26171;-81
2021/04/30 06:01:49;;;;;;;14.53;7.23;;;;;;;6.91;100.00;101520.95;1879274;76;26274;-78
2021/04/30 06:04:19;;;;;;;8.00;6.33;;;;;;;6.99;100.00;101523.87;1879085;76;26687;-79
2021/04/30 06:06:50;;;;;;;10.17;6.60;;;;;;;6.97;100.00;101517.77;1879353;76;26179;-80
2021/04/30 06:09:21;;;;;;;10.10;6.00;;;;;;;7.07;100.00;101517.41;1879306;76;26665;-80
2021/04/30 06:11:51;;;;;;;10.83;6.00;;;;;;;7.17;100.00;101513.48;1879131;76;26297;-78
2021/04/30 06:14:22;;;;;;;9.83;5.73;;;;;;;7.25;100.00;101515.00;1879091;74;26234;-79
2021/04/30 06:16:51;;;;;;;10.17;5.97;;;;;;;7.21;100.00;101509.14;1879427;76;26250;-80
2021/04/30 06:19:21;;;;;;;9.67;5.97;;;;;;;7.35;100.00;101520.73;1879321;76;26199;-82
2021/04/30 06:21:51;;;;;;;7.73;6.10;;;;;;;7.27;100.00;101518.37;1879303;76;26179;-83
2021/04/30 06:24:23;;;;;;;12.47;6.00;;;;;;;7.33;100.00;101519.59;1879356;76;26179;-80
2021/04/30 06:26:53;;;;;;;8.03;6.47;;;;;;;7.46;100.00;101521.75;1879388;76;26196;-79
2021/04/30 06:29:23;;;;;;;8.03;6.13;;;;;;;7.50;100.00;101518.78;1879215;76;26200;-79
2021/04/30 06:31:53;;;;;;;7.80;5.20;;;;;;;7.33;100.00;101518.20;1879286;76;26241;-79
2021/04/30 06:34:24;;;;;;;5.90;5.00;;;;;;;7.39;100.00;101514.16;1879302;76;26178;-79
2021/04/30 06:36:55;;;;;;;6.23;5.60;;;;;;;7.52;100.00;101515.24;1879357;76;26257;-79
2021/04/30 06:39:25;;;;;;;8.87;5.67;;;;;;;7.40;100.00;101518.61;1879562;76;26203;-80
2021/04/30 06:41:56;;;;;;;9.03;5.57;;;;;;;7.42;100.00;101512.28;1879323;76;26252;-80
2021/04/30 06:44:26;;;;;;;8.17;5.57;;;;;;;7.46;100.00;101518.45;1879199;76;26669;-80
2021/04/30 06:46:56;;;;;;;8.83;5.30;;;;;;;7.57;100.00;101515.34;1879316;76;26179;-80
2021/04/30 06:49:26;;;;;;;7.67;5.67;;;;;;;7.50;100.00;101514.64;1879345;76;26200;-80
2021/04/30 06:51:56;;;;;;;9.13;4.93;;;;;;;7.62;100.00;101512.64;1879421;76;26301;-79
2021/04/30 06:54:25;;;;;;;8.50;5.57;;;;;;;7.55;100.00;101513.35;1863383;76;26613;-79
2021/04/30 06:56:55;;;;;;;7.87;5.43;;;;;;;7.62;100.00;101514.02;1879247;76;26619;-79
2021/04/30 06:59:25;;;;;;;8.00;5.07;;;;;;;7.57;100.00;101525.83;1879181;76;26685;-79
2021/04/30 07:01:55;;;;;;;5.83;5.00;;;;;;;7.61;100.00;101520.12;1879083;76;26183;-80
2021/04/30 07:04:26;;;;;;;6.50;4.60;;;;;;;7.68;100.00;101519.41;1879212;76;26190;-80
2021/04/30 07:06:56;;;;;;;6.47;5.10;;;;;;;7.65;100.00;101519.91;1879188;76;26682;-78
2021/04/30 07:09:25;;;;;;;8.10;5.03;;;;;;;7.75;100.00;101523.38;1879159;76;26268;-77
2021/04/30 07:11:55;;;;;;;5.87;5.27;;;;;;;7.81;100.00;101526.53;1879092;76;26370;-77
2021/04/30 07:14:25;;;;;;;9.43;5.50;;;;;;;7.85;100.00;101525.48;1879080;74;26713;-78
2021/04/30 07:16:55;;;;;;;8.40;4.53;;;;;;;8.12;100.00;101518.20;1878990;76;26688;-82
2021/04/30 07:19:25;;;;;;;8.07;4.83;;;;;;;8.09;100.00;101518.14;1879051;76;26171;-81
2021/04/30 07:21:55;;;;;;;4.87;3.93;;;;;;;8.08;100.00;101524.79;1879239;76;26739;-80
2021/04/30 07:24:25;;;;;;;6.93;4.83;;;;;;;8.14;100.00;101521.54;1878989;76;26198;-81
2021/04/30 07:26:55;;;;;;;5.77;4.17;;;;;;;8.07;100.00;101523.11;1879171;76;26195;-80
2021/04/30 07:29:25;;;;;;;5.90;4.40;;;;;;;8.05;100.00;101530.80;1879101;76;26175;-80
2021/04/30 07:31:56;;;;;;;5.20;4.07;;;;;;;8.04;100.00;101522.78;1879197;76;26272;-82
2021/04/30 07:34:26;;;;;;;7.10;4.20;;;;;;;8.08;100.00;101521.19;1879140;76;26190;-81
2021/04/30 07:36:56;;;;;;;6.27;4.60;;;;;;;8.20;100.00;101520.54;1879162;76;26207;-82
2021/04/30 07:39:25;;;;;;;6.20;4.50;;;;;;;8.58;100.00;101523.36;1879547;76;26311;-82
2021/04/30 07:41:56;;;;;;;5.90;4.57;;;;;;;8.96;100.00;101523.02;1880148;76;26170;-81
2021/04/30 07:44:25;;;;;;;5.20;3.77;;;;;;;8.86;100.00;101522.33;1879647;76;26182;-83
2021/04/30 07:46:56;;;;;;;8.47;4.23;;;;;;;9.00;100.00;101522.78;1879147;76;26594;-83
2021/04/30 07:49:26;;;;;;;4.10;3.63;;;;;;;9.05;100.00;101515.37;1879165;76;26182;-83
2021/04/30 07:51:56;;;;;;;4.10;3.63;;;;;;;9.06;100.00;101523.98;1879296;76;26269;-83
2021/04/30 07:54:26;;;;;;;4.77;4.00;;;;;;;9.25;100.00;101522.23;1879131;76;26261;-83
2021/04/30 07:56:56;;;;;;;3.50;3.20;;;;;;;9.50;100.00;101521.13;1879256;76;26183;-83
2021/04/30 07:59:26;;;;;;;5.50;3.43;;;;;;;9.91;100.00;101517.65;1878960;76;26601;-83
2021/04/30 08:01:55;;;;;;;4.00;3.03;;;;;;;9.96;100.00;101513.53;1879022;76;26727;-82
2021/04/30 08:04:26;;;;;;;4.53;3.27;;;;;;;10.19;100.00;101512.88;1879194;76;26194;-83
2021/04/30 08:06:56;;;;;;;5.20;4.03;;;;;;;10.31;100.00;101514.94;1879026;76;26248;-83
2021/04/30 08:09:26;;;;;;;3.17;2.60;;;;;;;10.12;100.00;101513.09;1881693;76;26175;-83
2021/04/30 08:11:56;;;;;;;4.57;3.37;;;;;;;9.83;100.00;101512.59;1879012;76;26261;-83
2021/04/30 08:14:26;;;;;;;5.37;3.23;;;;;;;9.83;100.00;101515.36;1878986;76;26285;-82
2021/04/30 08:16:56;;;;;;;5.00;3.10;;;;;;;10.05;100.00;101513.30;1879032;76;26648;-83
2021/04/30 08:19:26;;;;;;;5.63;3.10;;;;;;;10.39;100.00;101511.11;1879197;76;26212;-83
2021/04/30 08:21:56;;;;;;;3.73;3.40;;;;;;;10.98;100.00;101506.69;1879107;76;26241;-83
2021/04/30 08:24:27;;;;;;;3.10;2.40;;;;;;;10.88;100.00;101506.62;1802669;78;26896;-84
2021/04/30 08:26:58;;;;;;;2.70;2.50;;;;;;;10.88;100.00;101504.69;1859772;77;26235;-83
2021/04/30 08:29:28;;;;;;;3.47;2.33;;;;;;;10.81;100.00;101502.72;1859941;77;26648;-83
2021/04/30 08:31:58;;;;;;;4.60;2.47;;;;;;;10.99;100.00;101507.52;1860004;77;26285;-83
2021/04/30 08:34:28;;;;;;;5.17;2.70;;;;;;;11.05;100.00;101504.47;1859870;77;26215;-83
2021/04/30 08:36:58;;;;;;;4.00;2.80;;;;;;;11.07;100.00;101498.66;1873235;76;26279;-84
2021/04/30 08:39:28;;;;;;;5.53;2.80;;;;;;;11.21;100.00;101503.98;1879310;76;26246;-84
2021/04/30 08:41:58;;;;;;;3.63;2.43;;;;;;;11.37;100.00;101507.92;1879317;76;26203;-84
2021/04/30 08:44:28;;;;;;;5.07;2.87;;;;;;;11.30;100.00;101500.93;1879276;76;26218;-84
2021/04/30 08:46:59;;;;;;;4.20;2.37;;;;;;;11.38;100.00;101505.98;1879066;76;26381;-84
2021/04/30 08:49:28;;;;;;;3.37;2.67;;;;;;;11.04;100.00;101506.97;1879309;76;26241;-84
2021/04/30 08:51:58;;;;;;;4.40;3.13;;;;;;;10.98;100.00;101507.23;1879368;76;26307;-84
2021/04/30 08:54:28;;;;;;;3.33;2.77;;;;;;;11.14;100.00;101505.63;1879347;76;26356;-84
2021/04/30 08:57:02;;;;;;;5.53;2.73;;;;;;;11.26;100.00;101508.15;1879189;76;26695;-84
2021/04/30 08:59:33;;;;;;;3.20;2.77;;;;;;;11.46;100.00;101511.55;1879193;76;26168;-83
2021/04/30 09:02:04;;;;;;;2.53;2.33;;;;;;;11.47;100.00;101511.27;1881953;76;26179;-83
2021/04/30 09:04:35;;;;;;;2.67;2.43;;;;;;;11.84;100.00;101506.91;1879158;76;26626;-82
2021/04/30 09:07:16;;;;;;;3.00;2.70;;;;;;;11.42;100.00;101505.72;1879167;76;26191;-83
2021/04/30 09:10:00;;;;;;;3.50;2.87;;;;;;;11.34;100.00;101508.45;1879094;76;26259;-82
2021/04/30 09:12:32;;;;;;;4.63;2.93;;;;;;;11.17;100.00;101510.63;1879170;76;26256;-82
2021/04/30 09:15:02;;;;;;;4.87;2.50;;;;;;;10.95;100.00;101508.04;1879225;76;26294;-81
2021/04/30 09:17:34;;;;;;;5.10;3.33;;;;;;;11.06;100.00;101508.09;1879271;76;26228;-81
2021/04/30 09:20:06;;;;;;;3.80;3.07;;;;;;;10.98;100.00;101512.79;1879315;76;26638;-81
2021/04/30 09:22:39;;;;;;;5.07;3.43;;;;;;;10.89;100.00;101510.53;1879151;76;26621;-81
2021/04/30 09:25:12;;;;;;;4.13;3.73;;;;;;;10.82;100.00;101511.35;1879097;76;26287;-81
2021/04/30 09:27:44;;;;;;;6.47;3.97;;;;;;;10.72;100.00;101511.29;1879181;76;26191;-81
2021/04/30 09:30:33;;;;;;;4.83;3.80;;;;;;;10.75;100.00;101513.52;1879187;76;26183;-82
2021/04/30 09:33:12;;;;;;;6.10;3.87;;;;;;;10.69;100.00;101517.94;1879208;76;26172;-82
2021/04/30 09:35:44;;;;;;;6.57;4.77;;;;;;;10.50;100.00;101523.10;1879178;76;26171;-81
2021/04/30 09:38:22;;;;;;;7.70;4.10;;;;;;;10.53;100.00;101528.11;1879120;76;26223;-82
2021/04/30 09:40:55;;;;;;;4.90;3.60;;;;;;;10.48;100.00;101524.75;1879170;76;26283;-82
2021/04/30 09:43:25;;;;;;;5.60;3.80;;;;;;;10.34;100.00;101527.73;1872048;76;26197;-82
2021/04/30 09:45:55;;;;;;;4.33;3.93;;;;;;;10.41;100.00;101524.16;1873803;76;26187;-82
2021/04/30 09:48:25;;;;;;;5.93;3.83;;;;;;;10.25;100.00;101527.94;1876460;76;26171;-82
2021/04/30 09:50:54;;;;;;;7.73;4.27;;;;;;;10.37;100.00;101524.95;1879204;76;26281;-82
2021/04/30 09:53:27;;;;;;;3.97;3.60;;;;;;;10.38;100.00;101519.70;1879199;76;26190;-82
2021/04/30 09:55:58;;;;;;;3.93;3.40;;;;;;;10.58;100.00;101521.20;1879331;76;26279;-82
2021/04/30 09:58:29;;;;;;;4.70;3.50;;;;;;;10.68;100.00;101521.82;1879280;76;26287;-81
2021/04/30 10:01:01;;;;;;;6.17;3.80;;;;;;;10.74;100.00;101520.75;1879164;76;26175;-81
2021/04/30 10:03:33;;;;;;;5.03;4.13;;;;;;;10.74;100.00;101522.14;1879247;76;26228;-79
2021/04/30 10:06:09;;;;;;;6.83;4.33;;;;;;;10.65;100.00;101525.98;1879350;76;26292;-81
2021/04/30 10:08:40;;;;;;;6.87;4.37;;;;;;;10.64;100.00;101532.64;1878857;76;26680;-81
2021/04/30 10:11:31;;;;;;;5.10;4.07;;;;;;;10.45;100.00;101525.30;1879187;76;26288;-83
2021/04/30 10:14:01;;;;;;;5.20;3.80;;;;;;;10.57;100.00;101527.86;1879079;76;26230;-80
2021/04/30 10:16:31;;;;;;;6.07;4.23;;;;;;;10.43;100.00;101526.67;1879036;76;26809;-84
2021/04/30 10:19:01;;;;;;;4.80;4.30;;;;;;;10.63;100.00;101515.68;1851575;77;26187;-80
2021/04/30 10:21:31;;;;;;;6.23;4.50;;;;;;;10.87;100.00;101516.91;1867214;76;26591;-80
2021/04/30 10:24:02;;;;;;;7.17;4.30;;;;;;;10.92;100.00;101518.88;1879301;76;26268;-81
2021/04/30 10:26:32;;;;;;;5.50;4.10;;;;;;;10.97;100.00;101514.73;1879131;76;26191;-81
2021/04/30 10:29:04;;;;;;;4.90;4.37;;;;;;;11.22;100.00;101509.26;1879180;76;26187;-81
2021/04/30 10:31:38;;;;;;;4.00;3.50;;;;;;;11.30;100.00;101512.05;1879185;76;26184;-81
2021/04/30 10:34:11;;;;;;;4.00;3.60;;;;;;;11.33;100.00;101513.76;1879147;76;26163;-83
2021/04/30 10:36:44;;;;;;;4.87;3.40;;;;;;;11.46;100.00;101508.22;1879328;76;26239;-84
2021/04/30 10:39:23;;;;;;;4.00;3.60;;;;;;;11.64;100.00;101504.89;1879362;76;26666;-82
2021/04/30 10:41:53;;;;;;;6.40;3.90;;;;;;;11.70;100.00;101501.02;1879150;76;26267;-81
2021/04/30 10:44:28;;;;;;;5.97;4.07;;;;;;;11.56;100.00;101493.47;1879947;76;26281;-79
2021/04/30 10:47:25;;;;;;;6.47;3.50;;;;;;;11.94;100.00;101499.13;1879236;76;26180;-82
2021/04/30 10:50:16;;;;;;;5.70;4.20;;;;;;;11.92;100.00;101492.43;1879284;76;26678;-82
2021/04/30 10:52:46;;;;;;;4.67;3.40;;;;;;;12.01;100.00;101491.31;1879162;76;26179;-81
2021/04/30 10:55:18;;;;;;;4.07;3.17;;;;;;;12.10;100.00;101488.25;1879046;76;26175;-81
2021/04/30 10:57:50;;;;;;;3.57;3.27;;;;;;;12.13;100.00;101487.68;1879072;76;26252;-81
2021/04/30 11:00:27;;;;;;;3.20;2.90;;;;;;;12.31;100.00;101488.50;1879202;76;26204;-80
2021/04/30 11:03:17;;;;;;;5.30;3.27;;;;;;;12.06;100.00;101481.57;1879035;76;26243;-81
2021/04/30 11:06:04;;;;;;;3.87;3.47;;;;;;;12.19;100.00;101476.83;1879313;76;26211;-81
2021/04/30 11:08:54;;;;;;;4.53;3.00;;;;;;;12.25;100.00;101476.52;1879211;76;26661;-81
2021/04/30 11:11:35;;;;;;;4.10;2.90;;;;;;;12.48;100.00;101465.33;1879322;76;26170;-83
2021/04/30 11:14:39;;;;;;;3.97;3.03;;;;;;;12.42;100.00;101468.40;1879779;76;26174;-82
2021/04/30 11:17:09;;;;;;;4.87;3.30;;;;;;;12.29;100.00;101466.48;1785334;79;26756;-83
2021/04/30 11:19:46;;;;;;;4.00;3.37;;;;;;;12.09;100.00;101467.91;1784656;80;26315;-82
2021/04/30 11:22:16;;;;;;;3.60;2.93;;;;;;;11.82;100.00;101468.20;1784875;80;26343;-82
2021/04/30 11:24:51;;;;;;;3.40;3.07;;;;;;;11.97;100.00;101469.33;1784725;80;26239;-82
2021/04/30 11:27:32;;;;;;;4.10;3.27;;;;;;;11.84;100.00;101465.99;1784586;80;26705;-82
2021/04/30 11:30:39;;;;;;;3.53;3.23;;;;;;;11.72;100.00;101462.62;1785012;80;26266;-90
2021/04/30 11:33:12;;;;;;;3.60;2.83;;;;;;;11.74;100.00;101461.80;1785349;80;26304;-82
2021/04/30 11:35:41;;;;;;;3.27;2.97;;;;;;;11.91;100.00;101464.30;1785260;80;26763;-85
2021/04/30 11:38:11;;;;;;;3.37;2.83;;;;;;;11.65;100.00;101463.44;1785444;80;26545;-83
2021/04/30 11:40:41;;;;;;;2.97;2.63;;;;;;;11.97;100.00;101465.14;1785653;80;27080;-85